createdAt,value
2023-11-06T00:00:54.003Z,2.47
2023-11-06T00:03:21.751Z,2.63
2023-11-06T00:05:50.001Z,2.40
2023-11-06T00:08:17.353Z,2.70
2023-11-06T00:10:44.785Z,2.67
2023-11-06T00:13:13.330Z,2.30
2023-11-06T00:15:41.983Z,2.53
2023-11-06T00:18:09.461Z,2.33
2023-11-06T00:20:37.042Z,2.75
2023-11-06T00:23:05.214Z,2.75
2023-11-06T00:25:32.703Z,2.10
2023-11-06T00:28:00.007Z,2.40
2023-11-06T00:30:27.359Z,2.85
2023-11-06T00:32:55.365Z,2.50
2023-11-06T00:35:23.133Z,2.20
2023-11-06T00:37:50.575Z,2.92
2023-11-06T00:40:19.104Z,2.30
2023-11-06T00:42:46.428Z,1.85
2023-11-06T00:45:14.084Z,2.15
2023-11-06T00:47:41.423Z,2.00
2023-11-06T00:50:09.319Z,2.67
2023-11-06T00:52:37.312Z,2.40
2023-11-06T00:55:04.932Z,2.00
2023-11-06T00:57:32.257Z,2.35
2023-11-06T00:59:59.649Z,2.53
2023-11-06T01:02:27.048Z,2.63
2023-11-06T01:04:54.400Z,2.65
2023-11-06T01:07:22.208Z,2.50
2023-11-06T01:09:49.524Z,2.80
2023-11-06T01:12:16.886Z,3.10
2023-11-06T01:14:44.193Z,3.00
2023-11-06T01:17:13.562Z,2.70
2023-11-06T01:19:40.988Z,2.97
2023-11-06T01:22:08.435Z,3.13
2023-11-06T01:24:35.794Z,3.05
2023-11-06T01:27:03.129Z,3.20
2023-11-06T01:29:30.441Z,3.10
2023-11-06T01:31:57.871Z,3.17
2023-11-06T01:34:25.235Z,4.25
2023-11-06T01:36:52.540Z,4.43
2023-11-06T01:39:20.162Z,4.65
2023-11-06T01:41:48.185Z,3.80
2023-11-06T01:44:15.713Z,3.70
2023-11-06T01:46:43.395Z,3.70
2023-11-06T01:49:11.348Z,3.88
2023-11-06T01:51:39.958Z,3.95
2023-11-06T01:54:07.913Z,3.70
2023-11-06T01:56:35.966Z,3.40
2023-11-06T01:59:05.426Z,4.22
2023-11-06T02:01:39.285Z,3.45
2023-11-06T02:04:07.738Z,3.75
2023-11-06T02:06:36.001Z,3.83
2023-11-06T02:09:04.739Z,3.70
2023-11-06T02:11:32.209Z,3.80
2023-11-06T02:14:00.454Z,3.67
2023-11-06T02:16:30.053Z,3.70
2023-11-06T02:18:57.899Z,3.40
2023-11-06T02:21:25.475Z,3.30
2023-11-06T02:23:52.809Z,3.58
2023-11-06T02:26:20.172Z,3.80
2023-11-06T02:28:55.006Z,3.05
2023-11-06T02:31:22.598Z,3.20
2023-11-06T02:33:49.919Z,3.53
2023-11-06T02:36:17.906Z,3.15
2023-11-06T02:38:45.229Z,3.28
2023-11-06T02:41:13.593Z,3.47
2023-11-06T02:43:41.028Z,3.72
2023-11-06T02:46:08.862Z,3.03
2023-11-06T02:48:36.252Z,2.80
2023-11-06T02:51:03.734Z,3.80
2023-11-06T02:53:31.422Z,3.60
2023-11-06T02:55:58.819Z,3.70
2023-11-06T02:58:26.769Z,3.03
2023-11-06T03:00:55.009Z,2.78
2023-11-06T03:03:22.858Z,2.40
2023-11-06T03:05:50.252Z,2.80
2023-11-06T03:08:18.281Z,2.55
2023-11-06T03:10:45.717Z,2.75
2023-11-06T03:13:13.131Z,2.70
2023-11-06T03:15:40.547Z,2.28
2023-11-06T03:18:08.081Z,2.50
2023-11-06T03:20:35.773Z,2.60
2023-11-06T03:23:03.458Z,1.80
2023-11-06T03:25:30.769Z,2.42
2023-11-06T03:27:58.429Z,2.28
2023-11-06T03:30:25.701Z,2.20
2023-11-06T03:32:53.128Z,2.05
2023-11-06T03:35:21.349Z,2.60
2023-11-06T03:37:48.698Z,2.05
2023-11-06T03:40:16.117Z,2.25
2023-11-06T03:42:43.400Z,1.88
2023-11-06T03:45:10.928Z,2.00
2023-11-06T03:47:38.660Z,2.00
2023-11-06T03:50:06.843Z,2.22
2023-11-06T03:52:34.193Z,1.67
2023-11-06T03:55:01.506Z,1.88
2023-11-06T03:57:28.897Z,1.70
2023-11-06T03:59:56.243Z,1.52
2023-11-06T04:02:23.647Z,1.20
2023-11-06T04:04:50.945Z,1.67
2023-11-06T04:07:18.377Z,1.70
2023-11-06T04:09:45.698Z,2.00
2023-11-06T04:12:13.035Z,1.67
2023-11-06T04:14:40.882Z,1.60
2023-11-06T04:17:09.430Z,1.75
2023-11-06T04:19:36.873Z,1.75
2023-11-06T04:22:04.252Z,1.70
2023-11-06T04:24:31.581Z,1.70
2023-11-06T04:26:59.015Z,1.60
2023-11-06T04:29:29.027Z,1.67
2023-11-06T04:31:56.364Z,2.35
2023-11-06T04:34:24.021Z,1.88
2023-11-06T04:36:51.751Z,1.70
2023-11-06T04:39:19.056Z,1.55
2023-11-06T04:41:46.489Z,1.50
2023-11-06T04:44:13.827Z,1.55
2023-11-06T04:46:41.185Z,1.52
2023-11-06T04:49:08.531Z,1.90
2023-11-06T04:51:36.013Z,1.77
2023-11-06T04:54:03.458Z,1.80
2023-11-06T04:56:30.829Z,1.55
2023-11-06T04:58:58.912Z,2.08
2023-11-06T05:01:26.292Z,2.60
2023-11-06T05:03:54.539Z,2.25
2023-11-06T05:06:21.988Z,2.42
2023-11-06T05:08:49.410Z,2.00
2023-11-06T05:11:16.780Z,1.88
2023-11-06T05:13:44.234Z,2.40
2023-11-06T05:16:11.671Z,2.03
2023-11-06T05:18:39.031Z,1.88
2023-11-06T05:21:07.057Z,2.20
2023-11-06T05:23:36.585Z,2.70
2023-11-06T05:26:05.815Z,2.13
2023-11-06T05:28:33.277Z,3.00
2023-11-06T05:31:00.639Z,1.88
2023-11-06T05:33:28.045Z,2.05
2023-11-06T05:35:55.509Z,2.40
2023-11-06T05:38:22.955Z,2.15
2023-11-06T05:40:50.382Z,2.35
2023-11-06T05:43:17.884Z,2.42
2023-11-06T05:45:45.329Z,2.30
2023-11-06T05:48:12.737Z,2.60
2023-11-06T05:50:40.113Z,2.45
2023-11-06T05:53:07.720Z,2.90
2023-11-06T05:55:35.564Z,2.97
2023-11-06T05:58:03.266Z,2.72
2023-11-06T06:00:32.235Z,2.70
2023-11-06T06:03:03.227Z,3.10
2023-11-06T06:05:31.001Z,3.03
2023-11-06T06:07:58.781Z,2.58
2023-11-06T06:10:26.661Z,2.67
2023-11-06T06:12:54.192Z,3.33
2023-11-06T06:15:23.810Z,2.70
2023-11-06T06:17:51.530Z,3.13
2023-11-06T06:20:19.132Z,3.00
2023-11-06T06:22:47.697Z,2.90
2023-11-06T06:25:16.650Z,2.17
2023-11-06T06:27:44.588Z,2.75
2023-11-06T06:30:14.307Z,2.58
2023-11-06T06:32:42.904Z,2.35
2023-11-06T06:35:11.121Z,2.85
2023-11-06T06:37:38.567Z,2.70
2023-11-06T06:40:11.559Z,2.80
2023-11-06T06:42:39.171Z,2.50
2023-11-06T06:45:07.115Z,2.25
2023-11-06T06:47:34.646Z,2.85
2023-11-06T06:50:02.184Z,1.98
2023-11-06T06:52:29.592Z,2.20
2023-11-06T06:54:56.937Z,1.95
2023-11-06T06:57:24.401Z,2.00
2023-11-06T06:59:51.792Z,1.80
2023-11-06T07:02:19.171Z,2.47
2023-11-06T07:04:46.639Z,2.75
2023-11-06T07:07:14.065Z,2.33
2023-11-06T07:09:41.642Z,2.55
2023-11-06T07:12:09.363Z,2.50
2023-11-06T07:14:36.820Z,2.50
2023-11-06T07:17:06.016Z,2.58
2023-11-06T07:19:33.921Z,2.50
2023-11-06T07:22:02.827Z,2.30
2023-11-06T07:24:30.356Z,2.40
2023-11-06T07:26:58.027Z,2.47
2023-11-06T07:29:25.674Z,2.33
2023-11-06T07:31:54.219Z,2.00
2023-11-06T07:34:23.761Z,2.53
2023-11-06T07:36:51.750Z,2.40
2023-11-06T07:39:19.693Z,2.25
2023-11-06T07:41:47.334Z,2.40
2023-11-06T07:44:15.169Z,2.10
2023-11-06T07:46:42.574Z,2.05
2023-11-06T07:49:10.075Z,2.10
2023-11-06T07:51:37.483Z,1.90
2023-11-06T07:54:05.041Z,2.25
2023-11-06T07:56:32.546Z,2.00
2023-11-06T07:59:04.229Z,2.10
2023-11-06T08:01:31.736Z,2.38
2023-11-06T08:03:59.078Z,2.63
2023-11-06T08:06:26.596Z,2.80
2023-11-06T08:08:54.229Z,3.15
2023-11-06T08:11:22.276Z,2.70
2023-11-06T08:13:51.705Z,2.70
2023-11-06T08:16:19.281Z,2.90
2023-11-06T08:18:46.795Z,2.78
2023-11-06T08:21:14.139Z,2.85
2023-11-06T08:23:42.114Z,3.83
2023-11-06T08:26:09.986Z,3.40
2023-11-06T08:28:37.339Z,3.20
2023-11-06T08:31:06.290Z,3.00
2023-11-06T08:33:34.981Z,4.15
2023-11-06T08:36:02.821Z,4.30
2023-11-06T08:38:30.332Z,4.43
2023-11-06T08:40:58.262Z,4.18
2023-11-06T08:43:28.765Z,4.32
2023-11-06T08:45:57.267Z,4.43
2023-11-06T08:48:24.739Z,3.75
2023-11-06T08:50:53.772Z,3.88
2023-11-06T08:53:21.143Z,3.45
2023-11-06T08:55:48.567Z,3.42
2023-11-06T08:58:18.854Z,3.63
2023-11-06T09:00:55.595Z,2.97
2023-11-06T09:03:23.837Z,3.13
2023-11-06T09:05:51.407Z,2.85
2023-11-06T09:08:19.316Z,2.33
2023-11-06T09:10:47.007Z,2.35
2023-11-06T09:13:14.606Z,2.70
2023-11-06T09:15:42.045Z,3.08
2023-11-06T09:18:10.120Z,3.22
2023-11-06T09:20:37.615Z,3.00
2023-11-06T09:23:08.125Z,3.30
2023-11-06T09:25:35.710Z,2.88
2023-11-06T09:28:03.086Z,3.55
2023-11-06T09:30:30.460Z,2.75
2023-11-06T09:32:58.050Z,2.88
2023-11-06T09:35:26.116Z,3.30
2023-11-06T09:37:53.247Z,2.42
2023-11-06T09:40:24.201Z,2.42
2023-11-06T09:42:51.775Z,2.78
2023-11-06T09:45:19.081Z,2.67
2023-11-06T09:47:53.565Z,2.40
2023-11-06T09:50:25.479Z,2.35
2023-11-06T09:52:55.150Z,2.50
2023-11-06T09:55:23.333Z,2.60
2023-11-06T09:57:52.896Z,2.20
2023-11-06T10:00:22.957Z,2.63
2023-11-06T10:02:54.618Z,2.60
2023-11-06T10:05:22.408Z,2.20
2023-11-06T10:07:55.988Z,2.20
2023-11-06T10:10:25.665Z,3.40
2023-11-06T10:13:14.725Z,2.30
2023-11-06T10:15:41.717Z,2.10
2023-11-06T10:18:17.323Z,2.67
2023-11-06T10:20:50.133Z,2.97
2023-11-06T10:23:35.999Z,2.65
2023-11-06T10:26:16.687Z,2.97
2023-11-06T10:28:44.360Z,2.47
2023-11-06T10:31:11.285Z,2.92
2023-11-06T10:33:38.507Z,2.20
2023-11-06T10:36:16.585Z,2.53
2023-11-06T10:38:44.890Z,2.42
2023-11-06T10:41:25.859Z,2.50
2023-11-06T10:44:03.714Z,2.50
2023-11-06T10:46:33.970Z,2.35
2023-11-06T10:49:23.746Z,2.70
2023-11-06T10:51:54.169Z,2.25
2023-11-06T10:54:24.503Z,2.47
2023-11-06T10:56:58.319Z,3.10
2023-11-06T10:59:27.702Z,2.45
2023-11-06T11:02:01.000Z,2.20
2023-11-06T11:04:31.267Z,2.30
2023-11-06T11:07:05.454Z,2.50
2023-11-06T11:09:32.892Z,2.92
2023-11-06T11:12:03.037Z,2.40
2023-11-06T11:14:30.109Z,2.85
2023-11-06T11:16:58.765Z,2.50
2023-11-06T11:19:29.060Z,2.65
2023-11-06T11:22:11.756Z,2.40
2023-11-06T11:24:48.838Z,2.60
2023-11-06T11:27:24.842Z,3.03
2023-11-06T11:29:55.124Z,2.75
2023-11-06T11:32:28.632Z,2.70
2023-11-06T11:34:58.934Z,2.38
2023-11-06T11:37:29.527Z,2.42
2023-11-06T11:39:57.371Z,2.22
2023-11-06T11:42:24.985Z,2.85
2023-11-06T11:45:09.321Z,3.00
2023-11-06T11:47:48.732Z,2.83
2023-11-06T11:50:28.093Z,2.00
2023-11-06T11:52:56.286Z,2.40
2023-11-06T11:55:40.918Z,2.60
2023-11-06T11:58:12.870Z,2.90
2023-11-06T12:00:45.196Z,2.37
2023-11-06T12:03:18.014Z,2.53
2023-11-06T12:05:55.612Z,2.05
2023-11-06T12:08:30.059Z,2.13
2023-11-06T12:10:57.710Z,2.35
2023-11-06T12:13:26.004Z,2.30
2023-11-06T12:15:54.568Z,2.25
2023-11-06T12:18:23.879Z,2.00
2023-11-06T12:21:01.506Z,1.95
2023-11-06T12:23:35.988Z,1.88
2023-11-06T12:26:11.237Z,1.50
2023-11-06T12:28:49.298Z,2.25
2023-11-06T12:31:17.715Z,1.58
2023-11-06T12:33:44.874Z,2.30
2023-11-06T12:36:28.224Z,2.20
2023-11-06T12:38:55.203Z,2.22
2023-11-06T12:41:32.749Z,2.00
2023-11-06T12:44:04.388Z,1.95
2023-11-06T12:47:01.250Z,1.92
2023-11-06T12:49:51.721Z,1.60
2023-11-06T12:52:22.827Z,1.92
2023-11-06T12:54:50.686Z,1.50
2023-11-06T12:57:19.878Z,1.92
2023-11-06T12:59:47.799Z,1.40
2023-11-06T13:02:15.323Z,1.85
2023-11-06T13:04:45.607Z,1.75
2023-11-06T13:07:12.618Z,2.63
2023-11-06T13:09:39.721Z,2.05
2023-11-06T13:12:08.880Z,2.20
2023-11-06T13:14:36.092Z,2.25
2023-11-06T13:17:13.839Z,2.00
2023-11-06T13:19:40.958Z,1.95
2023-11-06T13:22:08.857Z,2.03
2023-11-06T13:24:35.785Z,1.90
2023-11-06T13:27:03.423Z,1.98
2023-11-06T13:29:30.862Z,2.17
2023-11-06T13:31:57.809Z,2.10
2023-11-06T13:34:26.079Z,1.63
2023-11-06T13:36:57.587Z,2.38
2023-11-06T13:39:26.572Z,2.28
2023-11-06T13:41:56.250Z,2.00
2023-11-06T13:44:25.236Z,1.90
2023-11-06T13:46:53.930Z,1.90
2023-11-06T13:49:22.886Z,1.70
2023-11-06T13:51:50.820Z,2.00
2023-11-06T13:54:25.590Z,1.60
2023-11-06T13:56:53.817Z,1.48
2023-11-06T13:59:31.667Z,1.83
2023-11-06T14:02:02.512Z,2.40
2023-11-06T14:04:31.518Z,2.05
2023-11-06T14:06:59.066Z,1.88
2023-11-06T14:09:43.965Z,2.17
2023-11-06T14:12:12.585Z,2.00
2023-11-06T14:14:40.505Z,2.10
2023-11-06T14:17:07.594Z,2.00
2023-11-06T14:19:35.426Z,1.98
2023-11-06T14:22:07.754Z,1.70
2023-11-06T14:24:37.111Z,1.67
2023-11-06T14:27:06.184Z,2.50
2023-11-06T14:29:33.622Z,2.00
2023-11-06T14:32:00.679Z,2.40
2023-11-06T14:34:28.656Z,2.40
2023-11-06T14:36:55.649Z,2.47
2023-11-06T14:39:22.679Z,1.88
2023-11-06T14:41:49.730Z,1.90
2023-11-06T14:44:19.514Z,2.40
2023-11-06T14:46:46.667Z,2.03
2023-11-06T14:49:13.886Z,2.00
2023-11-06T14:51:40.898Z,2.83
2023-11-06T14:54:08.021Z,2.35
2023-11-06T14:56:35.392Z,2.10
2023-11-06T14:59:03.389Z,2.28
2023-11-06T15:01:30.584Z,2.40
2023-11-06T15:03:57.738Z,2.22
2023-11-06T15:06:25.224Z,2.38
2023-11-06T15:08:52.490Z,2.88
2023-11-06T15:11:20.252Z,2.22
2023-11-06T15:13:47.846Z,2.30
2023-11-06T15:16:15.177Z,2.25
2023-11-06T15:18:45.764Z,1.98
2023-11-06T15:21:13.546Z,3.00
2023-11-06T15:23:40.812Z,2.45
2023-11-06T15:26:09.327Z,1.95
2023-11-06T15:28:36.244Z,2.65
2023-11-06T15:31:06.317Z,2.40
2023-11-06T15:33:33.582Z,2.03
2023-11-06T15:36:00.864Z,2.13
2023-11-06T15:38:29.910Z,2.50
2023-11-06T15:40:59.753Z,3.20
2023-11-06T15:43:27.582Z,2.70
2023-11-06T15:45:54.603Z,2.42
2023-11-06T15:48:22.161Z,2.58
2023-11-06T15:50:52.391Z,2.50
2023-11-06T15:53:19.985Z,2.53
2023-11-06T15:55:47.861Z,2.72
2023-11-06T15:58:16.005Z,3.20
2023-11-06T16:00:43.671Z,2.60
2023-11-06T16:03:11.649Z,3.10
2023-11-06T16:05:40.008Z,3.92
2023-11-06T16:08:07.822Z,3.40
2023-11-06T16:10:35.143Z,3.33
2023-11-06T16:13:03.945Z,2.65
2023-11-06T16:15:31.400Z,2.92
2023-11-06T16:17:58.562Z,2.60
2023-11-06T16:20:27.102Z,3.13
2023-11-06T16:22:55.908Z,3.08
2023-11-06T16:25:23.068Z,3.55
2023-11-06T16:27:50.010Z,3.10
2023-11-06T16:30:17.130Z,2.85
2023-11-06T16:32:44.380Z,3.22
2023-11-06T16:35:11.460Z,2.90
2023-11-06T16:37:38.874Z,3.03
2023-11-06T16:40:11.922Z,2.92
2023-11-06T16:42:39.598Z,2.88
2023-11-06T16:45:07.506Z,2.42
2023-11-06T16:47:34.700Z,2.75
2023-11-06T16:50:01.989Z,2.78
2023-11-06T16:52:28.935Z,3.38
2023-11-06T16:54:56.006Z,3.83
2023-11-06T16:57:23.232Z,2.85
2023-11-06T16:59:50.486Z,2.65
2023-11-06T17:02:18.078Z,2.65
2023-11-06T17:04:52.036Z,2.60
2023-11-06T17:07:19.130Z,2.88
2023-11-06T17:09:48.958Z,2.55
2023-11-06T17:12:18.381Z,2.92
2023-11-06T17:14:45.431Z,3.05
2023-11-06T17:17:15.341Z,2.65
2023-11-06T17:19:42.434Z,2.63
2023-11-06T17:22:09.408Z,3.05
2023-11-06T17:24:37.590Z,3.15
2023-11-06T17:27:05.513Z,3.00
2023-11-06T17:29:34.979Z,3.20
2023-11-06T17:32:02.253Z,3.55
2023-11-06T17:34:29.225Z,3.35
2023-11-06T17:36:56.288Z,3.20
2023-11-06T17:39:25.666Z,3.03
2023-11-06T17:41:52.869Z,3.22
2023-11-06T17:44:20.031Z,3.42
2023-11-06T17:46:47.562Z,3.45
2023-11-06T17:49:15.278Z,3.53
2023-11-06T17:51:42.483Z,3.88
2023-11-06T17:54:11.839Z,3.35
2023-11-06T17:56:39.692Z,3.40
2023-11-06T17:59:07.619Z,3.50
2023-11-06T18:01:38.920Z,3.47
2023-11-06T18:04:06.621Z,3.30
2023-11-06T18:06:33.806Z,3.25
2023-11-06T18:09:01.372Z,4.70
2023-11-06T18:11:28.482Z,3.15
2023-11-06T18:13:55.603Z,3.53
2023-11-06T18:16:22.644Z,4.40
2023-11-06T18:18:49.751Z,3.42
2023-11-06T18:21:17.675Z,3.05
2023-11-06T18:23:45.181Z,2.80
2023-11-06T18:26:13.308Z,3.30
2023-11-06T18:28:41.168Z,3.00
2023-11-06T18:31:09.153Z,3.03
2023-11-06T18:33:37.927Z,3.03
2023-11-06T18:36:06.150Z,2.90
2023-11-06T18:38:33.526Z,3.30
2023-11-06T18:41:00.926Z,3.20
2023-11-06T18:43:28.294Z,3.30
2023-11-06T18:45:55.780Z,3.40
2023-11-06T18:48:23.335Z,3.38
2023-11-06T18:50:50.821Z,3.17
2023-11-06T18:53:18.203Z,3.50
2023-11-06T18:55:45.668Z,3.45
2023-11-06T18:58:13.145Z,3.08
2023-11-06T19:00:40.602Z,3.30
2023-11-06T19:03:08.031Z,3.47
2023-11-06T19:05:35.475Z,2.78
2023-11-06T19:08:02.841Z,3.20
2023-11-06T19:10:30.180Z,3.38
2023-11-06T19:12:57.752Z,3.15
2023-11-06T19:15:25.411Z,3.20
2023-11-06T19:17:52.884Z,3.20
2023-11-06T19:20:20.594Z,3.47
2023-11-06T19:22:48.023Z,3.40
2023-11-06T19:25:15.406Z,3.33
2023-11-06T19:27:42.720Z,3.45
2023-11-06T19:30:13.511Z,3.67
2023-11-06T19:32:41.803Z,3.90
2023-11-06T19:35:10.982Z,3.58
2023-11-06T19:37:41.183Z,3.45
2023-11-06T19:40:09.707Z,3.67
2023-11-06T19:42:37.091Z,3.40
2023-11-06T19:45:05.535Z,3.65
2023-11-06T19:47:33.219Z,4.00
2023-11-06T19:50:03.190Z,3.70
2023-11-06T19:52:30.530Z,4.32
2023-11-06T19:54:57.866Z,4.00
2023-11-06T19:57:25.387Z,3.80
2023-11-06T20:00:01.581Z,4.38
2023-11-06T20:02:35.578Z,3.92
2023-11-06T20:05:03.841Z,3.78
2023-11-06T20:07:31.482Z,3.80
2023-11-06T20:09:58.897Z,3.92
2023-11-06T20:12:26.376Z,4.10
2023-11-06T20:14:53.892Z,3.92
2023-11-06T20:17:21.439Z,4.20
2023-11-06T20:19:48.936Z,4.32
2023-11-06T20:22:17.309Z,4.18
2023-11-06T20:24:45.071Z,4.30
2023-11-06T20:27:12.732Z,4.43
2023-11-06T20:29:40.256Z,4.22
2023-11-06T20:32:08.931Z,4.30
2023-11-06T20:34:36.570Z,4.40
2023-11-06T20:37:03.979Z,4.72
2023-11-06T20:39:31.793Z,4.93
2023-11-06T20:41:59.404Z,4.75
2023-11-06T20:44:26.796Z,4.47
2023-11-06T20:46:54.170Z,4.20
2023-11-06T20:49:21.580Z,4.70
2023-11-06T20:51:49.154Z,4.43
2023-11-06T20:54:17.091Z,5.15
2023-11-06T20:56:45.803Z,4.80
2023-11-06T20:59:13.222Z,4.88
2023-11-06T21:01:40.665Z,5.05
2023-11-06T21:04:08.935Z,5.78
2023-11-06T21:06:37.731Z,4.70
2023-11-06T21:09:05.186Z,4.80
2023-11-06T21:11:33.366Z,5.18
2023-11-06T21:14:00.745Z,4.90
2023-11-06T21:16:33.838Z,5.43
2023-11-06T21:19:01.540Z,5.25
2023-11-06T21:21:31.156Z,5.18
2023-11-06T21:24:02.518Z,5.20
2023-11-06T21:26:31.057Z,5.25
2023-11-06T21:28:58.635Z,5.03
2023-11-06T21:31:27.239Z,4.90
2023-11-06T21:33:58.365Z,5.68
2023-11-06T21:36:26.983Z,5.32
2023-11-06T21:38:57.695Z,4.50
2023-11-06T21:41:25.571Z,5.10
2023-11-06T21:43:53.876Z,4.75
2023-11-06T21:46:22.545Z,5.13
2023-11-06T21:48:50.082Z,5.53
2023-11-06T21:51:17.461Z,4.93
2023-11-06T21:53:44.891Z,4.97
2023-11-06T21:56:12.273Z,5.50
2023-11-06T21:58:39.573Z,5.20
2023-11-06T22:01:07.269Z,5.10
2023-11-06T22:03:34.784Z,5.22
2023-11-06T22:06:02.299Z,5.10
2023-11-06T22:08:29.717Z,5.88
2023-11-06T22:10:57.597Z,5.47
2023-11-06T22:13:25.592Z,4.63
2023-11-06T22:15:53.594Z,5.20
2023-11-06T22:18:21.610Z,4.10
2023-11-06T22:20:49.164Z,4.53
2023-11-06T22:23:16.578Z,5.00
2023-11-06T22:25:43.953Z,4.53
2023-11-06T22:28:11.352Z,4.55
2023-11-06T22:30:38.643Z,4.00
2023-11-06T22:33:06.730Z,4.63
2023-11-06T22:35:34.520Z,4.38
2023-11-06T22:38:01.985Z,4.97
2023-11-06T22:40:29.491Z,4.38
2023-11-06T22:42:56.837Z,4.57
2023-11-06T22:45:24.168Z,4.50
2023-11-06T22:47:51.694Z,3.97
2023-11-06T22:50:19.082Z,3.72
2023-11-06T22:52:46.375Z,3.72
2023-11-06T22:55:19.005Z,3.90
2023-11-06T22:57:46.431Z,3.30
2023-11-06T23:00:23.017Z,3.88
2023-11-06T23:02:51.062Z,3.45
2023-11-06T23:05:24.964Z,4.15
2023-11-06T23:07:56.689Z,3.67
2023-11-06T23:10:24.371Z,3.67
2023-11-06T23:12:51.808Z,3.75
2023-11-06T23:15:19.878Z,3.60
2023-11-06T23:17:48.456Z,3.60
2023-11-06T23:20:16.299Z,3.80
2023-11-06T23:22:44.912Z,3.72
2023-11-06T23:25:15.870Z,3.88
2023-11-06T23:27:43.773Z,4.65
2023-11-06T23:30:11.700Z,3.95
2023-11-06T23:32:39.108Z,3.53
2023-11-06T23:35:07.144Z,3.50
2023-11-06T23:37:35.168Z,3.90
2023-11-06T23:40:04.592Z,3.63
2023-11-06T23:42:32.498Z,3.45
2023-11-06T23:45:02.129Z,3.20
2023-11-06T23:47:31.410Z,3.40
2023-11-06T23:49:59.174Z,3.22
2023-11-06T23:52:26.537Z,3.58
2023-11-06T23:54:53.837Z,4.22
2023-11-06T23:57:21.544Z,3.30
2023-11-06T23:59:48.987Z,3.20
